Time;durP1;ratioP1;P1;durP2;ratioP2;P2;SDS_P1;SDS_P2;PMS_P1;PMS_P2;Temp;Humidity;BMP_temperature;BMP_pressure;BME280_temperature;BME280_humidity;BME280_pressure;Samples;Min_cycle;Max_cycle;Signal;HPM_P1;HPM_P2
2022/03/12 00:01:15;;;;;;;12.32;7.15;;;;;;;;;;5074973;28;20036;-59
2022/03/12 00:03:41;;;;;;;12.00;6.65;;;;;;;;;;5075201;28;20445;-59
2022/03/12 00:06:09;;;;;;;11.07;7.50;;;;;;;;;;5083136;28;20498;-59
2022/03/12 00:08:44;;;;;;;12.68;7.55;;;;;;;;;;5086800;28;20090;-59
2022/03/12 00:11:22;;;;;;;12.73;7.40;;;;;;;;;;5081034;28;20515;-59
2022/03/12 00:13:49;;;;;;;11.23;7.53;;;;;;;;;;5092383;28;20046;-59
2022/03/12 00:16:24;;;;;;;9.77;7.07;;;;;;;;;;5086519;28;20028;-59
2022/03/12 00:18:55;;;;;;;11.80;7.43;;;;;;;;;;5091709;28;20047;-59
2022/03/12 00:21:23;;;;;;;12.02;7.25;;;;;;;;;;5092539;28;20435;-58
2022/03/12 00:23:50;;;;;;;10.85;7.25;;;;;;;;;;5092036;28;20040;-59
2022/03/12 00:26:16;;;;;;;13.30;7.20;;;;;;;;;;5087321;28;20036;-59
2022/03/12 00:28:42;;;;;;;11.68;7.65;;;;;;;;;;5075318;28;20089;-59
2022/03/12 00:31:09;;;;;;;13.75;7.57;;;;;;;;;;5091871;28;20068;-59
2022/03/12 00:33:35;;;;;;;10.80;7.22;;;;;;;;;;5088178;28;20036;-59
2022/03/12 00:36:02;;;;;;;14.95;7.50;;;;;;;;;;5078596;28;20044;-59
2022/03/12 00:38:28;;;;;;;10.57;6.93;;;;;;;;;;5087415;28;20079;-59
2022/03/12 00:40:55;;;;;;;11.00;6.60;;;;;;;;;;5081069;28;20032;-59
2022/03/12 00:43:21;;;;;;;13.55;7.70;;;;;;;;;;5090687;28;20048;-60
2022/03/12 00:45:48;;;;;;;8.65;6.70;;;;;;;;;;5087109;28;20485;-59
2022/03/12 00:48:14;;;;;;;11.93;6.90;;;;;;;;;;5081318;28;20052;-59
2022/03/12 00:50:40;;;;;;;11.82;7.63;;;;;;;;;;5084586;28;20486;-59
2022/03/12 00:53:06;;;;;;;11.95;7.60;;;;;;;;;;5080022;28;20047;-59
2022/03/12 00:55:32;;;;;;;12.75;7.63;;;;;;;;;;5087118;28;20061;-59
2022/03/12 00:57:58;;;;;;;11.02;6.90;;;;;;;;;;5077463;28;20513;-59
2022/03/12 01:00:25;;;;;;;12.73;7.40;;;;;;;;;;5091565;28;20131;-59
2022/03/12 01:02:51;;;;;;;15.60;7.45;;;;;;;;;;5082438;28;20032;-59
2022/03/12 01:05:21;;;;;;;10.27;6.72;;;;;;;;;;5074812;28;20036;-59
2022/03/12 01:07:48;;;;;;;12.70;6.95;;;;;;;;;;5091569;28;20040;-59
2022/03/12 01:10:14;;;;;;;11.45;7.00;;;;;;;;;;5086972;28;20045;-59
2022/03/12 01:12:43;;;;;;;12.05;6.93;;;;;;;;;;5072454;28;20029;-58
2022/03/12 01:15:10;;;;;;;12.63;7.38;;;;;;;;;;5072158;28;20045;-58
2022/03/12 01:17:36;;;;;;;10.45;7.03;;;;;;;;;;5089900;28;20044;-58
2022/03/12 01:20:06;;;;;;;12.15;7.18;;;;;;;;;;5091269;28;20043;-59
2022/03/12 01:22:38;;;;;;;10.52;6.82;;;;;;;;;;5083552;28;20051;-59
2022/03/12 01:25:05;;;;;;;11.02;7.10;;;;;;;;;;5079501;28;20418;-59
2022/03/12 01:27:31;;;;;;;13.07;7.25;;;;;;;;;;5084885;28;20040;-59
2022/03/12 01:29:57;;;;;;;10.18;7.03;;;;;;;;;;5089788;28;20375;-59
2022/03/12 01:32:23;;;;;;;12.57;7.50;;;;;;;;;;5075084;28;20112;-59
2022/03/12 01:34:49;;;;;;;12.27;7.55;;;;;;;;;;5070908;28;20028;-58
2022/03/12 01:37:19;;;;;;;15.10;7.57;;;;;;;;;;5085413;28;20489;-59
2022/03/12 01:39:46;;;;;;;13.80;7.55;;;;;;;;;;5079754;28;20036;-59
2022/03/12 01:42:14;;;;;;;12.00;7.57;;;;;;;;;;5091616;28;20044;-59
2022/03/12 01:44:40;;;;;;;10.82;6.70;;;;;;;;;;5086435;28;20046;-59
2022/03/12 01:47:07;;;;;;;11.40;7.53;;;;;;;;;;5085618;28;20047;-59
2022/03/12 01:49:34;;;;;;;11.70;7.05;;;;;;;;;;5090738;28;20427;-59
2022/03/12 01:52:00;;;;;;;13.25;7.38;;;;;;;;;;5088532;28;20060;-59
2022/03/12 01:54:27;;;;;;;11.18;6.88;;;;;;;;;;5091123;28;20032;-58
2022/03/12 01:56:53;;;;;;;10.48;6.43;;;;;;;;;;5078752;28;20051;-58
2022/03/12 01:59:21;;;;;;;10.15;6.85;;;;;;;;;;5070411;28;20131;-59
2022/03/12 02:01:51;;;;;;;11.23;7.32;;;;;;;;;;5089187;28;20057;-59
2022/03/12 02:04:18;;;;;;;10.50;7.35;;;;;;;;;;5073603;28;20087;-59
2022/03/12 02:06:45;;;;;;;11.93;7.30;;;;;;;;;;5080311;28;20040;-58
2022/03/12 02:09:15;;;;;;;11.80;7.68;;;;;;;;;;5094526;28;20485;-58
2022/03/12 02:11:43;;;;;;;13.63;7.73;;;;;;;;;;5095062;28;20535;-58
2022/03/12 02:14:10;;;;;;;13.38;7.53;;;;;;;;;;5093098;28;20402;-59
2022/03/12 02:16:36;;;;;;;12.98;7.38;;;;;;;;;;5088685;28;20039;-58
2022/03/12 02:19:02;;;;;;;10.82;7.68;;;;;;;;;;5085935;28;20410;-59
2022/03/12 02:21:41;;;;;;;10.57;7.22;;;;;;;;;;5082393;28;20512;-58
2022/03/12 02:24:09;;;;;;;15.90;7.93;;;;;;;;;;5073872;28;20036;-58
2022/03/12 02:26:36;;;;;;;11.70;7.30;;;;;;;;;;5074318;28;20043;-58
2022/03/12 02:29:02;;;;;;;12.23;7.07;;;;;;;;;;5074374;28;20047;-58
2022/03/12 02:31:29;;;;;;;9.55;7.22;;;;;;;;;;5087727;28;20512;-58
2022/03/12 02:34:01;;;;;;;12.77;7.80;;;;;;;;;;5086416;28;20414;-58
2022/03/12 02:36:27;;;;;;;12.63;7.43;;;;;;;;;;5094647;28;20066;-59
2022/03/12 02:38:54;;;;;;;12.05;7.03;;;;;;;;;;5092584;28;20032;-59
2022/03/12 02:41:21;;;;;;;11.10;7.40;;;;;;;;;;5093694;28;20040;-59
2022/03/12 02:43:47;;;;;;;12.07;7.15;;;;;;;;;;5082530;28;20131;-59
2022/03/12 02:46:14;;;;;;;12.00;7.68;;;;;;;;;;5075378;28;20554;-58
2022/03/12 02:48:40;;;;;;;11.80;7.38;;;;;;;;;;5074622;28;20490;-58
2022/03/12 02:51:07;;;;;;;10.15;7.43;;;;;;;;;;5081116;28;20510;-59
2022/03/12 02:53:33;;;;;;;11.80;7.03;;;;;;;;;;5081387;28;20032;-59
2022/03/12 02:55:59;;;;;;;12.10;6.95;;;;;;;;;;5093825;28;20409;-59
2022/03/12 02:58:26;;;;;;;12.52;7.15;;;;;;;;;;5079693;28;20036;-59
2022/03/12 03:00:53;;;;;;;13.48;7.85;;;;;;;;;;5083678;28;20106;-59
2022/03/12 03:03:19;;;;;;;11.00;7.20;;;;;;;;;;5083656;28;20105;-59
2022/03/12 03:05:47;;;;;;;12.23;7.55;;;;;;;;;;5073139;28;20039;-59
2022/03/12 03:08:19;;;;;;;11.63;7.13;;;;;;;;;;5072951;28;20397;-59
2022/03/12 03:10:47;;;;;;;13.98;7.47;;;;;;;;;;5073699;28;20452;-59
2022/03/12 03:13:16;;;;;;;14.35;8.02;;;;;;;;;;5077277;28;20040;-59
2022/03/12 03:15:46;;;;;;;12.05;7.85;;;;;;;;;;5091701;28;20486;-59
2022/03/12 03:18:13;;;;;;;12.63;7.70;;;;;;;;;;5093419;28;20410;-59
2022/03/12 03:20:39;;;;;;;11.25;7.50;;;;;;;;;;5089033;28;20043;-59
2022/03/12 03:23:06;;;;;;;11.27;7.78;;;;;;;;;;5090372;28;20031;-59
2022/03/12 03:25:32;;;;;;;12.60;7.82;;;;;;;;;;5078758;28;20493;-59
2022/03/12 03:27:58;;;;;;;12.48;7.57;;;;;;;;;;5093362;28;20051;-59
2022/03/12 03:30:24;;;;;;;10.98;7.32;;;;;;;;;;5085392;28;20406;-59
2022/03/12 03:32:50;;;;;;;11.50;7.45;;;;;;;;;;5092666;28;20036;-59
2022/03/12 03:35:16;;;;;;;12.30;7.25;;;;;;;;;;5073730;28;20036;-59
2022/03/12 03:37:42;;;;;;;12.35;7.68;;;;;;;;;;5079572;28;20040;-59
2022/03/12 03:40:09;;;;;;;9.45;7.13;;;;;;;;;;5087791;28;20052;-59
2022/03/12 03:42:35;;;;;;;11.80;7.20;;;;;;;;;;5073191;28;20047;-59
2022/03/12 03:45:02;;;;;;;12.15;7.88;;;;;;;;;;5089265;28;20052;-59
2022/03/12 03:47:28;;;;;;;14.27;7.72;;;;;;;;;;5072330;28;20056;-59
2022/03/12 03:49:55;;;;;;;13.57;8.10;;;;;;;;;;5072205;28;20048;-59
2022/03/12 03:52:21;;;;;;;11.50;7.82;;;;;;;;;;5093070;28;20108;-59
2022/03/12 03:54:47;;;;;;;12.93;7.47;;;;;;;;;;5090480;28;20382;-59
2022/03/12 03:57:16;;;;;;;9.75;7.40;;;;;;;;;;5090129;28;20044;-59
2022/03/12 03:59:42;;;;;;;11.25;7.35;;;;;;;;;;5087360;28;20040;-59
2022/03/12 04:02:08;;;;;;;13.35;8.10;;;;;;;;;;5073133;28;20048;-59
2022/03/12 04:04:36;;;;;;;11.57;7.82;;;;;;;;;;5081218;28;20534;-59
2022/03/12 04:07:03;;;;;;;12.13;7.50;;;;;;;;;;5087698;28;20097;-59
2022/03/12 04:09:29;;;;;;;12.75;7.57;;;;;;;;;;5084726;28;20076;-59
2022/03/12 04:11:55;;;;;;;11.40;8.45;;;;;;;;;;5072248;28;20044;-59
2022/03/12 04:14:21;;;;;;;10.68;7.35;;;;;;;;;;5080306;28;20505;-59
2022/03/12 04:16:47;;;;;;;11.23;7.45;;;;;;;;;;5077085;28;20024;-59
2022/03/12 04:19:14;;;;;;;11.07;7.75;;;;;;;;;;5087006;28;20041;-59
2022/03/12 04:21:40;;;;;;;9.98;7.30;;;;;;;;;;5071649;28;20044;-59
2022/03/12 04:24:07;;;;;;;12.52;7.93;;;;;;;;;;5072743;28;20044;-59
2022/03/12 04:26:37;;;;;;;10.80;7.32;;;;;;;;;;5075695;28;20120;-59
2022/03/12 04:29:04;;;;;;;11.63;8.05;;;;;;;;;;5074782;28;20078;-59
2022/03/12 04:31:31;;;;;;;12.00;7.70;;;;;;;;;;5083523;28;20044;-59
2022/03/12 04:33:57;;;;;;;8.90;7.45;;;;;;;;;;5080294;28;20035;-59
2022/03/12 04:36:23;;;;;;;13.85;7.85;;;;;;;;;;5079800;28;20072;-59
2022/03/12 04:38:49;;;;;;;13.07;7.38;;;;;;;;;;5072535;28;20076;-59
2022/03/12 04:41:16;;;;;;;11.70;7.40;;;;;;;;;;5072349;28;20367;-59
2022/03/12 04:43:43;;;;;;;10.63;7.43;;;;;;;;;;5072939;28;20040;-59
2022/03/12 04:46:09;;;;;;;14.25;7.85;;;;;;;;;;5081490;28;20046;-59
2022/03/12 04:48:36;;;;;;;12.18;7.97;;;;;;;;;;5076746;28;20037;-59
2022/03/12 04:51:02;;;;;;;10.00;7.10;;;;;;;;;;5087461;28;20402;-60
2022/03/12 04:53:28;;;;;;;11.23;7.88;;;;;;;;;;5078678;28;20047;-59
2022/03/12 04:55:55;;;;;;;12.13;7.70;;;;;;;;;;5083389;28;20036;-59
2022/03/12 04:58:22;;;;;;;12.48;7.60;;;;;;;;;;5078880;28;20031;-59
2022/03/12 05:00:48;;;;;;;10.88;7.60;;;;;;;;;;5082634;28;20047;-59
2022/03/12 05:03:18;;;;;;;10.98;7.60;;;;;;;;;;5076002;28;20044;-59
2022/03/12 05:05:45;;;;;;;10.53;7.47;;;;;;;;;;5077968;28;20094;-59
2022/03/12 05:08:16;;;;;;;12.98;7.50;;;;;;;;;;5071419;28;20090;-59
2022/03/12 05:10:43;;;;;;;11.18;7.40;;;;;;;;;;5077759;28;20558;-59
2022/03/12 05:13:10;;;;;;;14.43;7.82;;;;;;;;;;5090986;28;20430;-59
2022/03/12 05:15:39;;;;;;;12.90;7.32;;;;;;;;;;5071079;28;20040;-59
2022/03/12 05:18:11;;;;;;;13.48;7.38;;;;;;;;;;5061466;28;20073;-59
2022/03/12 05:20:38;;;;;;;12.27;7.55;;;;;;;;;;5070427;28;20048;-59
2022/03/12 05:23:07;;;;;;;12.23;7.57;;;;;;;;;;5079936;28;20047;-59
2022/03/12 05:25:33;;;;;;;12.43;7.40;;;;;;;;;;5077382;28;20535;-59
2022/03/12 05:27:59;;;;;;;13.95;7.57;;;;;;;;;;5078017;28;20170;-59
2022/03/12 05:30:27;;;;;;;12.77;7.78;;;;;;;;;;5091616;22;20156;-59
2022/03/12 05:32:53;;;;;;;11.27;7.03;;;;;;;;;;5079117;28;20501;-59
2022/03/12 05:35:20;;;;;;;12.88;7.57;;;;;;;;;;5083633;28;20195;-58
2022/03/12 05:37:47;;;;;;;12.48;7.65;;;;;;;;;;5084891;28;20401;-58
2022/03/12 05:40:19;;;;;;;9.68;7.03;;;;;;;;;;5071937;28;20509;-58
2022/03/12 05:42:45;;;;;;;11.60;7.28;;;;;;;;;;5103490;28;20040;-58
2022/03/12 05:45:12;;;;;;;12.35;6.78;;;;;;;;;;5102493;28;20040;-57
2022/03/12 05:47:40;;;;;;;13.00;7.97;;;;;;;;;;5103030;28;20047;-58
2022/03/12 05:50:10;;;;;;;14.20;7.53;;;;;;;;;;5103286;28;20048;-58
2022/03/12 05:52:39;;;;;;;12.50;8.02;;;;;;;;;;5103830;28;20043;-58
2022/03/12 05:55:05;;;;;;;12.30;7.63;;;;;;;;;;5101134;28;20044;-58
2022/03/12 05:57:32;;;;;;;13.10;7.80;;;;;;;;;;5101264;28;20063;-58
2022/03/12 06:00:01;;;;;;;11.13;7.47;;;;;;;;;;5105132;28;20043;-58
2022/03/12 06:02:28;;;;;;;13.20;7.55;;;;;;;;;;5104061;28;20048;-58
2022/03/12 06:04:57;;;;;;;11.30;7.32;;;;;;;;;;5101422;28;20047;-60
2022/03/12 06:07:25;;;;;;;11.50;7.03;;;;;;;;;;5101699;28;20097;-60
2022/03/12 06:09:51;;;;;;;13.15;8.20;;;;;;;;;;5101414;28;20040;-60
2022/03/12 06:12:18;;;;;;;12.05;7.40;;;;;;;;;;5104152;28;20428;-60
2022/03/12 06:14:51;;;;;;;11.18;7.65;;;;;;;;;;5085308;28;20036;-60
2022/03/12 06:17:18;;;;;;;10.57;6.97;;;;;;;;;;5103111;28;20036;-60
2022/03/12 06:19:44;;;;;;;10.68;6.88;;;;;;;;;;5104252;28;20567;-60
2022/03/12 06:22:10;;;;;;;10.40;6.65;;;;;;;;;;5103433;28;20126;-60
2022/03/12 06:24:36;;;;;;;10.88;7.43;;;;;;;;;;5083662;28;20044;-60
2022/03/12 06:27:03;;;;;;;12.70;7.70;;;;;;;;;;5103806;28;20107;-60
2022/03/12 06:29:29;;;;;;;11.80;7.22;;;;;;;;;;5102768;28;20488;-60
2022/03/12 06:31:55;;;;;;;12.73;6.97;;;;;;;;;;5099606;28;20067;-60
2022/03/12 06:34:21;;;;;;;12.82;7.05;;;;;;;;;;5103484;28;20381;-60
2022/03/12 06:36:48;;;;;;;11.43;7.55;;;;;;;;;;5102625;28;20042;-60
2022/03/12 06:39:14;;;;;;;14.32;8.07;;;;;;;;;;5103315;28;20046;-62
2022/03/12 06:41:45;;;;;;;11.65;7.65;;;;;;;;;;5103175;28;20040;-60
2022/03/12 06:44:15;;;;;;;17.23;8.18;;;;;;;;;;5103202;28;20035;-60
2022/03/12 06:46:41;;;;;;;12.00;8.00;;;;;;;;;;5081459;28;20050;-60
2022/03/12 06:49:07;;;;;;;11.50;7.07;;;;;;;;;;5082699;28;20035;-60
2022/03/12 06:51:34;;;;;;;12.05;7.43;;;;;;;;;;5104721;28;20036;-60
2022/03/12 06:54:00;;;;;;;13.65;7.95;;;;;;;;;;5103125;28;20061;-60
2022/03/12 06:56:26;;;;;;;14.07;7.68;;;;;;;;;;5103517;28;20035;-59
2022/03/12 06:58:52;;;;;;;12.23;7.20;;;;;;;;;;5094226;28;20481;-60
2022/03/12 07:01:18;;;;;;;12.15;7.55;;;;;;;;;;5095657;28;20554;-60
2022/03/12 07:03:44;;;;;;;14.75;8.15;;;;;;;;;;5099285;28;20036;-60
2022/03/12 07:06:10;;;;;;;11.73;7.97;;;;;;;;;;5112175;28;20047;-60
2022/03/12 07:08:36;;;;;;;13.65;7.80;;;;;;;;;;5111058;28;20501;-60
2022/03/12 07:11:05;;;;;;;12.75;7.18;;;;;;;;;;5100957;28;20463;-60
2022/03/12 07:13:31;;;;;;;12.93;8.18;;;;;;;;;;5103993;28;20036;-60
2022/03/12 07:15:57;;;;;;;14.15;7.80;;;;;;;;;;5093375;28;20082;-60
2022/03/12 07:18:23;;;;;;;16.88;7.28;;;;;;;;;;5103223;28;20051;-60
2022/03/12 07:20:49;;;;;;;10.65;7.60;;;;;;;;;;5109548;28;20396;-60
2022/03/12 07:23:15;;;;;;;13.38;7.97;;;;;;;;;;5103960;28;20039;-61
2022/03/12 07:25:41;;;;;;;13.15;7.43;;;;;;;;;;5103660;28;20048;-60
2022/03/12 07:28:07;;;;;;;11.73;7.15;;;;;;;;;;5104779;28;20042;-60
2022/03/12 07:30:33;;;;;;;13.90;7.85;;;;;;;;;;5093449;28;20424;-60
2022/03/12 07:33:00;;;;;;;13.38;7.95;;;;;;;;;;5092303;28;20047;-60
2022/03/12 07:35:26;;;;;;;14.75;8.75;;;;;;;;;;5093684;28;20489;-60
2022/03/12 07:37:53;;;;;;;13.80;7.80;;;;;;;;;;5097546;28;20111;-60
2022/03/12 07:40:20;;;;;;;13.43;7.90;;;;;;;;;;5113454;28;20084;-60
2022/03/12 07:42:47;;;;;;;12.30;7.95;;;;;;;;;;5113326;28;20425;-61
2022/03/12 07:45:13;;;;;;;13.70;8.30;;;;;;;;;;5113696;28;20043;-60
2022/03/12 07:47:39;;;;;;;14.45;8.35;;;;;;;;;;5111451;28;20126;-60
2022/03/12 07:50:06;;;;;;;13.73;8.48;;;;;;;;;;5113151;28;20075;-61
2022/03/12 07:52:32;;;;;;;11.73;8.40;;;;;;;;;;5113203;28;20183;-60
2022/03/12 07:54:58;;;;;;;11.88;8.05;;;;;;;;;;5113624;28;20312;-61
2022/03/12 07:57:28;;;;;;;13.80;8.27;;;;;;;;;;5111798;28;20035;-60
2022/03/12 07:59:54;;;;;;;11.85;7.97;;;;;;;;;;5113084;28;20630;-60
2022/03/12 08:02:20;;;;;;;14.32;8.15;;;;;;;;;;5113477;28;20068;-60
2022/03/12 08:04:46;;;;;;;12.98;7.82;;;;;;;;;;5112809;28;20044;-61
2022/03/12 08:07:12;;;;;;;12.00;7.70;;;;;;;;;;5113280;28;20044;-60
2022/03/12 08:09:38;;;;;;;13.80;8.00;;;;;;;;;;5110984;28;20378;-61
2022/03/12 08:12:04;;;;;;;14.52;8.27;;;;;;;;;;5113095;28;20035;-60
2022/03/12 08:14:32;;;;;;;16.98;8.68;;;;;;;;;;5112419;28;20092;-61
2022/03/12 08:16:58;;;;;;;13.77;8.02;;;;;;;;;;5113287;28;20095;-60
2022/03/12 08:19:25;;;;;;;15.07;8.15;;;;;;;;;;5095603;28;20032;-60
2022/03/12 08:21:52;;;;;;;14.88;8.60;;;;;;;;;;5092232;28;20043;-61
2022/03/12 08:24:19;;;;;;;15.35;8.88;;;;;;;;;;5092106;28;20089;-61
2022/03/12 08:26:45;;;;;;;12.40;8.50;;;;;;;;;;5092490;28;20470;-60
2022/03/12 08:29:12;;;;;;;12.45;7.85;;;;;;;;;;5093608;28;20115;-60
2022/03/12 08:31:39;;;;;;;12.43;8.18;;;;;;;;;;5091765;28;20085;-61
2022/03/12 08:34:06;;;;;;;13.10;8.60;;;;;;;;;;5092084;28;20032;-61
2022/03/12 08:36:32;;;;;;;15.07;9.27;;;;;;;;;;5092374;28;20040;-61
2022/03/12 08:38:58;;;;;;;11.40;8.10;;;;;;;;;;5085581;28;20048;-61
2022/03/12 08:41:25;;;;;;;14.32;9.23;;;;;;;;;;5093866;28;20040;-61
2022/03/12 08:43:51;;;;;;;13.70;7.90;;;;;;;;;;5112020;28;20039;-62
2022/03/12 08:46:17;;;;;;;13.55;8.68;;;;;;;;;;5112882;28;20040;-61
2022/03/12 08:48:44;;;;;;;16.30;8.60;;;;;;;;;;5101609;28;20071;-61
2022/03/12 08:51:10;;;;;;;14.55;8.25;;;;;;;;;;5103372;28;20039;-61
2022/03/12 08:53:36;;;;;;;14.55;8.60;;;;;;;;;;5093968;28;20051;-61
2022/03/12 08:56:03;;;;;;;14.20;8.50;;;;;;;;;;5112286;28;20119;-62
2022/03/12 08:58:30;;;;;;;14.10;8.77;;;;;;;;;;5109921;28;20119;-61
2022/03/12 09:00:56;;;;;;;12.25;8.70;;;;;;;;;;5101839;28;20493;-61
2022/03/12 09:03:23;;;;;;;12.40;8.15;;;;;;;;;;5090802;28;20065;-61
2022/03/12 09:05:49;;;;;;;12.70;8.60;;;;;;;;;;5074079;28;20079;-60
2022/03/12 09:08:15;;;;;;;15.13;9.05;;;;;;;;;;5096028;28;20523;-60
2022/03/12 09:10:42;;;;;;;14.63;9.00;;;;;;;;;;5093297;28;20047;-60
2022/03/12 09:13:12;;;;;;;13.93;8.65;;;;;;;;;;5111386;28;20508;-61
2022/03/12 09:15:39;;;;;;;13.25;9.35;;;;;;;;;;5094227;28;20043;-61
2022/03/12 09:18:05;;;;;;;13.88;8.57;;;;;;;;;;5110179;28;20043;-61
2022/03/12 09:20:32;;;;;;;12.55;8.18;;;;;;;;;;5111699;28;20071;-60
2022/03/12 09:22:58;;;;;;;13.93;8.98;;;;;;;;;;5111995;28;20055;-61
2022/03/12 09:25:24;;;;;;;14.05;8.63;;;;;;;;;;5110033;28;20043;-61
2022/03/12 09:27:52;;;;;;;11.23;8.65;;;;;;;;;;5108784;28;20406;-61
2022/03/12 09:30:18;;;;;;;13.90;8.45;;;;;;;;;;5111461;28;20046;-61
2022/03/12 09:32:44;;;;;;;18.17;9.23;;;;;;;;;;5112009;28;20043;-61
2022/03/12 09:35:11;;;;;;;14.43;9.20;;;;;;;;;;5111812;28;20036;-61
2022/03/12 09:37:38;;;;;;;15.93;8.07;;;;;;;;;;5094448;28;20068;-61
2022/03/12 09:40:04;;;;;;;15.38;9.35;;;;;;;;;;5111519;28;20043;-61
2022/03/12 09:42:30;;;;;;;13.35;8.82;;;;;;;;;;5112096;28;20088;-61
2022/03/12 09:45:01;;;;;;;14.93;9.60;;;;;;;;;;5111811;28;20047;-61
2022/03/12 09:47:27;;;;;;;13.37;9.13;;;;;;;;;;5095075;28;20044;-61
2022/03/12 09:49:53;;;;;;;14.07;8.75;;;;;;;;;;5091086;28;20036;-61
2022/03/12 09:52:19;;;;;;;15.52;8.90;;;;;;;;;;5111822;28;20679;-61
2022/03/12 09:54:45;;;;;;;14.27;9.43;;;;;;;;;;5096667;28;20093;-61
2022/03/12 09:57:11;;;;;;;13.73;8.63;;;;;;;;;;5105005;28;20166;-61
2022/03/12 09:59:37;;;;;;;15.02;9.18;;;;;;;;;;5092980;28;20572;-61
2022/03/12 10:02:03;;;;;;;13.63;8.65;;;;;;;;;;5093540;28;20039;-61
2022/03/12 10:04:29;;;;;;;14.95;9.23;;;;;;;;;;5110774;28;20064;-61
2022/03/12 10:06:55;;;;;;;14.75;9.23;;;;;;;;;;5109932;28;20043;-61
2022/03/12 10:09:22;;;;;;;12.25;8.95;;;;;;;;;;5093078;28;20054;-61
2022/03/12 10:11:51;;;;;;;12.15;8.20;;;;;;;;;;5111380;28;20040;-61
2022/03/12 10:14:17;;;;;;;15.25;9.85;;;;;;;;;;5092352;28;20580;-61
2022/03/12 10:16:43;;;;;;;13.35;9.32;;;;;;;;;;5102014;28;20097;-61
2022/03/12 10:19:10;;;;;;;14.48;8.88;;;;;;;;;;5090742;28;20119;-61
2022/03/12 10:21:42;;;;;;;14.48;9.63;;;;;;;;;;5092526;28;20039;-61
2022/03/12 10:24:08;;;;;;;15.82;9.75;;;;;;;;;;5094705;28;20044;-61
2022/03/12 10:26:34;;;;;;;14.88;9.00;;;;;;;;;;5102214;28;20043;-61
2022/03/12 10:29:00;;;;;;;16.15;9.95;;;;;;;;;;5114715;28;20039;-61
2022/03/12 10:31:28;;;;;;;15.05;10.00;;;;;;;;;;5114829;28;20036;-61
2022/03/12 10:34:13;;;;;;;13.75;8.98;;;;;;;;;;5114918;28;20092;-61
2022/03/12 10:36:39;;;;;;;13.90;9.65;;;;;;;;;;5111436;28;20031;-61
2022/03/12 10:39:05;;;;;;;16.23;9.15;;;;;;;;;;5101711;28;20461;-61
2022/03/12 10:41:31;;;;;;;12.82;9.30;;;;;;;;;;5094582;28;20036;-61
2022/03/12 10:43:58;;;;;;;14.40;8.60;;;;;;;;;;5093812;28;20101;-61
2022/03/12 10:46:28;;;;;;;16.02;9.00;;;;;;;;;;5081743;28;20036;-61
2022/03/12 10:48:58;;;;;;;14.68;9.13;;;;;;;;;;5114558;28;20139;-61
2022/03/12 10:51:26;;;;;;;12.23;8.85;;;;;;;;;;5114350;28;20409;-61
2022/03/12 10:53:59;;;;;;;13.27;8.63;;;;;;;;;;5114531;28;20047;-61
2022/03/12 10:56:37;;;;;;;14.50;8.77;;;;;;;;;;5113973;28;20035;-61
2022/03/12 10:59:10;;;;;;;15.35;9.15;;;;;;;;;;5113939;28;20047;-61
2022/03/12 11:01:36;;;;;;;13.77;8.63;;;;;;;;;;5114195;28;20039;-61
2022/03/12 11:04:03;;;;;;;13.13;8.95;;;;;;;;;;5114348;28;20039;-61
2022/03/12 11:06:29;;;;;;;17.95;10.98;;;;;;;;;;5112794;28;20445;-61
2022/03/12 11:08:55;;;;;;;15.48;8.90;;;;;;;;;;5103030;28;20043;-61
2022/03/12 11:11:22;;;;;;;13.57;8.68;;;;;;;;;;5093709;28;20417;-61
2022/03/12 11:13:49;;;;;;;16.10;8.65;;;;;;;;;;5093563;28;20044;-61
2022/03/12 11:16:24;;;;;;;14.23;9.25;;;;;;;;;;5097142;28;20085;-61
2022/03/12 11:18:53;;;;;;;14.07;9.02;;;;;;;;;;5093142;28;20040;-61
2022/03/12 11:21:52;;;;;;;16.95;10.00;;;;;;;;;;5093968;28;20079;-61
2022/03/12 11:24:17;;;;;;;11.38;8.73;;;;;;;;;;5092982;28;20083;-61
2022/03/12 11:26:44;;;;;;;13.48;8.93;;;;;;;;;;5101118;28;20047;-61
2022/03/12 11:29:11;;;;;;;13.40;8.27;;;;;;;;;;5095744;28;20054;-61
2022/03/12 11:32:09;;;;;;;11.90;8.82;;;;;;;;;;5104932;22;20065;-60
2022/03/12 11:34:39;;;;;;;14.23;8.68;;;;;;;;;;5060513;28;20623;-60
2022/03/12 11:37:12;;;;;;;14.25;9.18;;;;;;;;;;5083933;28;20127;-61
2022/03/12 11:39:59;;;;;;;14.50;9.38;;;;;;;;;;5072807;28;20494;-61
2022/03/12 11:42:26;;;;;;;13.75;8.65;;;;;;;;;;5072680;28;20042;-61
2022/03/12 11:44:52;;;;;;;14.80;8.45;;;;;;;;;;5072697;28;20033;-61
2022/03/12 11:47:19;;;;;;;11.80;8.15;;;;;;;;;;5072722;28;20567;-61
2022/03/12 11:49:46;;;;;;;11.45;8.43;;;;;;;;;;5072957;28;20036;-61
2022/03/12 11:52:13;;;;;;;13.48;8.70;;;;;;;;;;5072841;28;20445;-61
2022/03/12 11:54:43;;;;;;;13.02;8.18;;;;;;;;;;5073058;28;20075;-61
2022/03/12 11:57:10;;;;;;;12.20;7.97;;;;;;;;;;5072702;28;20044;-61
2022/03/12 11:59:38;;;;;;;12.73;7.68;;;;;;;;;;5071774;28;20314;-61
2022/03/12 12:02:18;;;;;;;12.65;8.35;;;;;;;;;;5072859;28;20128;-61
2022/03/12 12:04:44;;;;;;;12.82;7.53;;;;;;;;;;5072693;28;20090;-61
2022/03/12 12:07:11;;;;;;;12.77;7.70;;;;;;;;;;5071661;28;20044;-61
2022/03/12 12:09:37;;;;;;;17.15;7.57;;;;;;;;;;5072370;28;20120;-61
2022/03/12 12:12:11;;;;;;;14.90;8.43;;;;;;;;;;5072185;28;20040;-61
2022/03/12 12:14:37;;;;;;;11.05;7.80;;;;;;;;;;5072380;28;20044;-61
2022/03/12 12:17:03;;;;;;;12.35;7.78;;;;;;;;;;5071907;28;20036;-61
2022/03/12 12:19:29;;;;;;;12.35;7.57;;;;;;;;;;5072198;28;20036;-61
2022/03/12 12:21:55;;;;;;;12.45;8.05;;;;;;;;;;5072226;28;20086;-61
2022/03/12 12:24:32;;;;;;;13.35;8.02;;;;;;;;;;5070371;28;20402;-61
2022/03/12 12:26:59;;;;;;;12.50;7.15;;;;;;;;;;5072084;28;20170;-61
2022/03/12 12:29:43;;;;;;;12.48;7.85;;;;;;;;;;5071513;28;20509;-61
2022/03/12 12:32:10;;;;;;;13.00;8.45;;;;;;;;;;5071735;28;20406;-61
2022/03/12 12:34:37;;;;;;;12.82;8.10;;;;;;;;;;5072024;28;20051;-61
2022/03/12 12:37:03;;;;;;;12.70;7.93;;;;;;;;;;5071522;28;20040;-61
2022/03/12 12:39:29;;;;;;;14.05;7.72;;;;;;;;;;5072110;28;20045;-61
2022/03/12 12:41:58;;;;;;;12.93;7.75;;;;;;;;;;5071638;28;20402;-61
2022/03/12 12:44:40;;;;;;;12.60;7.00;;;;;;;;;;5071168;28;20040;-61
2022/03/12 12:47:06;;;;;;;12.23;7.70;;;;;;;;;;5071600;28;20111;-61
2022/03/12 12:49:36;;;;;;;12.07;7.88;;;;;;;;;;5071260;28;20083;-61
2022/03/12 12:52:03;;;;;;;13.48;7.70;;;;;;;;;;5070376;28;20032;-61
2022/03/12 12:54:48;;;;;;;13.55;7.40;;;;;;;;;;5071646;28;20036;-61
2022/03/12 12:57:14;;;;;;;12.18;6.78;;;;;;;;;;5071866;28;20089;-61
2022/03/12 12:59:48;;;;;;;10.45;7.10;;;;;;;;;;5071802;28;20040;-61
2022/03/12 13:02:14;;;;;;;12.43;7.85;;;;;;;;;;5071794;28;20052;-61
2022/03/12 13:04:44;;;;;;;12.23;7.40;;;;;;;;;;5071066;28;20558;-61
2022/03/12 13:07:21;;;;;;;10.35;6.47;;;;;;;;;;5071748;28;20044;-61
2022/03/12 13:09:50;;;;;;;12.52;7.38;;;;;;;;;;5071772;28;20481;-61
2022/03/12 13:12:16;;;;;;;13.82;7.35;;;;;;;;;;5071489;28;20044;-61
2022/03/12 13:14:43;;;;;;;11.07;7.05;;;;;;;;;;5071132;28;20390;-61
2022/03/12 13:17:11;;;;;;;13.15;7.45;;;;;;;;;;5071543;28;20032;-61
2022/03/12 13:19:44;;;;;;;11.63;7.22;;;;;;;;;;5071535;28;20052;-61
2022/03/12 13:22:10;;;;;;;10.73;6.03;;;;;;;;;;5071538;28;20079;-61
2022/03/12 13:24:43;;;;;;;13.30;6.78;;;;;;;;;;5071290;28;20048;-61
2022/03/12 13:27:15;;;;;;;11.32;6.45;;;;;;;;;;5071316;28;20049;-62
2022/03/12 13:29:42;;;;;;;10.52;6.03;;;;;;;;;;5071460;28;20051;-61
2022/03/12 13:32:16;;;;;;;10.43;6.15;;;;;;;;;;5071331;28;20090;-62
2022/03/12 13:34:42;;;;;;;11.13;6.45;;;;;;;;;;5071211;28;20109;-61
2022/03/12 13:37:08;;;;;;;12.82;6.72;;;;;;;;;;5051456;28;20491;-62
2022/03/12 13:39:36;;;;;;;11.43;6.82;;;;;;;;;;5051087;28;20048;-62
2022/03/12 13:42:02;;;;;;;10.02;6.00;;;;;;;;;;5051522;28;20052;-62
2022/03/12 13:44:28;;;;;;;9.38;6.00;;;;;;;;;;5051449;28;20047;-61
2022/03/12 13:46:54;;;;;;;12.00;6.18;;;;;;;;;;5070581;28;20079;-61
2022/03/12 13:49:21;;;;;;;10.02;5.95;;;;;;;;;;5071137;28;20052;-61
2022/03/12 13:51:50;;;;;;;10.82;5.47;;;;;;;;;;5071095;28;20040;-61
2022/03/12 13:54:17;;;;;;;9.98;5.72;;;;;;;;;;5070108;28;20509;-61
2022/03/12 13:56:43;;;;;;;10.35;5.93;;;;;;;;;;5073539;28;20059;-61
2022/03/12 13:59:12;;;;;;;10.32;5.85;;;;;;;;;;5075046;28;20072;-62
2022/03/12 14:01:39;;;;;;;12.90;5.57;;;;;;;;;;5074763;28;20047;-62
2022/03/12 14:04:06;;;;;;;9.90;5.95;;;;;;;;;;5074696;28;20049;-61
2022/03/12 14:06:39;;;;;;;10.15;6.20;;;;;;;;;;5074034;28;20093;-61
2022/03/12 14:09:06;;;;;;;10.07;5.80;;;;;;;;;;5059586;28;20045;-61
2022/03/12 14:11:34;;;;;;;12.82;6.00;;;;;;;;;;5074437;28;20033;-62
2022/03/12 14:14:06;;;;;;;11.88;6.70;;;;;;;;;;5074999;28;20402;-61
2022/03/12 14:16:36;;;;;;;10.10;6.25;;;;;;;;;;5074009;28;20048;-61
2022/03/12 14:19:04;;;;;;;9.15;5.45;;;;;;;;;;5074454;28;20044;-62
2022/03/12 14:21:36;;;;;;;9.07;5.18;;;;;;;;;;5074175;28;20490;-61
2022/03/12 14:24:09;;;;;;;11.38;5.90;;;;;;;;;;5074405;28;20525;-61
2022/03/12 14:26:55;;;;;;;11.27;5.80;;;;;;;;;;5074095;28;20046;-62
2022/03/12 14:29:23;;;;;;;9.07;5.55;;;;;;;;;;5074061;28;20098;-61
2022/03/12 14:31:49;;;;;;;9.38;5.90;;;;;;;;;;5074382;28;20040;-62
2022/03/12 14:34:16;;;;;;;8.60;4.55;;;;;;;;;;5074622;28;20478;-61